Sula, MT

7:55 AM MDT on September 05, 2015 (GMT -0600)
RAWS | | Change Station
CLOSE
Current Station
Personal Weather Station
Location: Sula, MT
Elevation: 6628 ft
Nearby Weather Stations
Active Advisory: Winter Weather Advisory

Elev 6628 ft 45.93 °N, 113.74 °W | Updated 46 minutes ago

Overcast
Overcast
41.0 °F
Feels Like 37 °F
N
6.0
Wind Variable Wind from ESE
Gusts 11.0 mph

Today
High -- | Low -- °F
--% Chance of Precip.
Yesterday
High -- | Low -- °F
Precip. -- in
7:00 AM 8:05 PM
Waning Gibbous, 48% visible
Pressure 29.93 in
Visibility 3.0 miles
Clouds Scattered Clouds 1300 ft
Overcast 2200 ft
Windchill 37 °F
Dew Point 37.0 °F
Humidity 84%
Rainfall in
Snow Depth Not available.
UV 0 out of 12
Pollen 2.60 out of 12
Air Quality Not available.
Flu Activity Not available.
SPECI KBTM 051346Z AUTO 36006KT 3SM RA BR SCT013 OVC022 06/05 A2993 RMK AO2 P0010 T00610050
Pressure 29.93 in
Visibility 3.0 miles
Clouds Scattered Clouds 1300 ft
Overcast 2200 ft
Windchill 37 °F
Dew Point 37.0 °F
Humidity 84%
Rainfall in
Snow Depth Not available.
UV 0 out of 12
Pollen 2.60 out of 12
Air Quality Not available.
Flu Activity Not available.
SPECI KBTM 051346Z AUTO 36006KT 3SM RA BR SCT013 OVC022 06/05 A2993 RMK AO2 P0010 T00610050

10-Day Weather Forecast

×

Almanac

Astronomy

Sep. 05, 2015 Rise Set
Actual Time
Civil Twilight
Nautical Twilight
Astronomical Twilight
Moon
Length of Visible Light
Length of Day
Tomorrow will be .
, % of the Moon is Illuminated

Today's Extremes

State Highs State Lows

Community

WunderPhotos

Upload Photos

1,852,464 photos uploaded!

WunderBlogs® & News

Nearby

Air Quality

  Air Quality AQ Index Pollutant
Not available.

Snow Depth

Station Depth Elevation

Earthquake Activity

City Distance Mag. Time & Date
Minimum magnitude displayed is 2.5.

Coastal Water Temperatures

Place Temperature

Stations

Nearby Weather Stations

Station Location Temp. Windchill Dew Point Humidity Wind Precip. Elev Updated Type
                   
Winter Weather Advisory
Statement as of 2:29 PM MDT on September 04, 2015

... Winter Weather Advisory remains in effect from noon Saturday
to 9 am MDT Sunday above 6500 feet...

A Winter Weather Advisory above 6500 feet remains in effect from
noon Saturday to 9 am MDT Sunday.

* Impacts/timing: the arrival of heavier precipitation and
colder air aloft will drive the snow level down to 6500 feet
Saturday afternoon and overnight into Sunday morning. While a
mix of rain and snow are likely as low as 6000 feet...
accumulating snow is anticipated generally above 6500 feet.

* Snow accumulations: 6000 feet to 6500 feet: trace amounts up
to a slushy inch. 6500ft to 7500 feet: 1/2 inch up to 2
inches. Above 7500 feet: 1 to 4 inches with locally higher
amounts possible on the highest peaks.

* Locations impacted: Lost Trail Pass... Skalkaho Pass...
Bitterroot Mountains... Anaconda-pintlar wilderness area.